Varmdo — SMXZ — position and weather

sailwx.info

Track history (hours):
 
Tides and Currents Weather Stations Pressure Air Temp Water Temp Dewpoint Dewpoint Depression Visibility Wind Speed Wind Dir Waves Ship Positions

Varmdo

Last reported at 2014-Nov-24 18:23 UTC. Time now 2014-Nov-24 21:26 UTC.
Position N 59°24' E 018°21'.

Length 38 m; draft 2.5 m.

Type: Passenger vessel. MMSI: 265520390.

Date/timePositionNaut miles runAvg speedWind from/ knotsBaromVisibWave heightAir tempDewpointWater temp
2014-Nov-24 18:23N 59°24' E 018°21'1 1.2
2014-Nov-24 17:32N 59°23' E 018°20'9 9.1
2014-Nov-24 16:33N 59°19' E 018°05'0 0.3
2014-Nov-24 15:28N 59°20' E 018°04'0 0.0
2014-Nov-24 14:31N 59°20' E 018°04'0 0.0
2014-Nov-24 13:28N 59°20' E 018°04'0 0.0
2014-Nov-24 12:31N 59°20' E 018°04'0 0.0
2014-Nov-24 11:31N 59°20' E 018°04'0 0.0
2014-Nov-24 10:31N 59°20' E 018°04'0 0.0
2014-Nov-24 09:31N 59°20' E 018°04'0 0.0
2014-Nov-24 08:31N 59°20' E 018°04'0 0.0
2014-Nov-24 07:31N 59°20' E 018°04'3 3.5
2014-Nov-24 06:34N 59°20' E 018°11'7 7.0
2014-Nov-24 05:32N 59°24' E 018°22'1 0.1
2014-Nov-23 21:34N 59°24' E 018°21'5 4.3
2014-Nov-23 20:29N 59°21' E 018°15'5 5.5
2014-Nov-23 19:31N 59°20' E 018°05'3 3.1
2014-Nov-23 18:34N 59°19' E 018°10'3 0.3
2014-Nov-23 09:32N 59°21' E 018°14'5 5.3
2014-Nov-23 08:33N 59°20' E 018°05'0 0.0
2014-Nov-23 07:33N 59°20' E 018°05'0 0.0
2014-Nov-23 06:33N 59°20' E 018°05'0 0.0
2014-Nov-23 05:33N 59°20' E 018°05'0 0.0
2014-Nov-23 04:33N 59°20' E 018°05'0 0.0
2014-Nov-23 03:33N 59°20' E 018°05'0 0.0
2014-Nov-23 02:33N 59°20' E 018°05'0 0.0
2014-Nov-23 01:33N 59°20' E 018°05'0 0.0
2014-Nov-23 00:33N 59°20' E 018°05'0 0.0
2014-Nov-22 23:33N 59°20' E 018°05'0 0.0
2014-Nov-22 22:30N 59°20' E 018°05'0 0.0
2014-Nov-22 21:30N 59°20' E 018°05'0 0.0
2014-Nov-22 20:33N 59°20' E 018°05'6 5.9
2014-Nov-22 19:33N 59°22' E 018°15'1 0.1
2014-Nov-22 13:27N 59°21' E 018°15'5 5.7
2014-Nov-22 12:32N 59°20' E 018°05'0 0.0
2014-Nov-22 11:26N 59°20' E 018°05'0 0.0
2014-Nov-22 10:32N 59°20' E 018°05'7 7.7
2014-Nov-22 09:34N 59°23' E 018°18'2 0.1
2014-Nov-21 17:04N 59°24' E 018°21'4 7.8
2014-Nov-21 16:32N 59°21' E 018°15'5 5.3
2014-Nov-21 15:31N 59°20' E 018°05'0 0.0
2014-Nov-21 14:31N 59°20' E 018°05'6 5.8
2014-Nov-21 13:33N 59°21' E 018°15'4 0.8
2014-Nov-21 08:12N 59°24' E 018°21'811.8
2014-Nov-21 07:33N 59°19' E 018°09'0 0.1
2014-Nov-21 06:33N 59°19' E 018°09'7 0.5
2014-Nov-20 17:28N 59°23' E 018°20'9 9.6
2014-Nov-20 16:33N 59°19' E 018°05'0 0.4
2014-Nov-20 15:32N 59°20' E 018°05'0 0.0
2014-Nov-20 14:29N 59°20' E 018°05'0 0.0
2014-Nov-20 13:32N 59°20' E 018°05'0 0.0
2014-Nov-20 12:29N 59°20' E 018°05'0 0.0
2014-Nov-20 11:32N 59°20' E 018°05'0 0.0
2014-Nov-20 10:32N 59°20' E 018°05'0 0.0
2014-Nov-20 09:32N 59°20' E 018°05'0 0.0
2014-Nov-20 08:32N 59°20' E 018°05'0 0.0
2014-Nov-20 07:29N 59°20' E 018°05'3 2.7
2014-Nov-20 06:31N 59°19' E 018°09'7 0.5
2014-Nov-19 17:29N 59°23' E 018°20'9 9.6
2014-Nov-19 16:33N 59°19' E 018°05'0 0.3
2014-Nov-19 15:26N 59°20' E 018°05'0 0.0
2014-Nov-19 14:29N 59°20' E 018°05'0 0.0
2014-Nov-19 13:32N 59°20' E 018°05'0 0.0
2014-Nov-19 12:32N 59°20' E 018°05'0 0.0
2014-Nov-19 11:33N 59°20' E 018°05'0 0.1
2014-Nov-19 10:32N 59°20' E 018°05'0 0.0
2014-Nov-19 09:32N 59°20' E 018°05'0 0.0
2014-Nov-19 08:32N 59°20' E 018°05'0 0.0
2014-Nov-19 06:14N 59°20' E 018°05'0 0.0
2014-Nov-19 04:23N 59°20' E 018°05'0 0.0
2014-Nov-19 02:32N 59°20' E 018°05'0 0.0
2014-Nov-19 01:32N 59°20' E 018°05'0 0.0
2014-Nov-19 00:32N 59°20' E 018°05'0 0.0
2014-Nov-18 23:29N 59°20' E 018°05'0 0.0
2014-Nov-18 22:26N 59°20' E 018°05'0 0.0
2014-Nov-18 21:26N 59°20' E 018°05'0 0.0
2014-Nov-18 20:23N 59°20' E 018°05'0 0.0
2014-Nov-18 19:32N 59°20' E 018°05'0 0.0
2014-Nov-18 18:32N 59°20' E 018°05'0 0.0
2014-Nov-18 17:20N 59°20' E 018°05'0 0.0
2014-Nov-18 16:32N 59°20' E 018°05'0 0.0
2014-Nov-18 15:29N 59°20' E 018°05'0 0.0
2014-Nov-18 14:29N 59°20' E 018°05'0 0.0
2014-Nov-18 13:26N 59°20' E 018°05'0 0.0
2014-Nov-18 12:26N 59°20' E 018°05'0 0.0
2014-Nov-18 11:26N 59°20' E 018°05'0 0.0
2014-Nov-18 09:08N 59°20' E 018°05'0 0.0
2014-Nov-18 08:29N 59°20' E 018°05'0 0.0
2014-Nov-18 04:29N 59°20' E 018°05'0 0.0
2014-Nov-18 03:17N 59°20' E 018°05'0 0.0
2014-Nov-18 02:14N 59°20' E 018°05'0 0.0
2014-Nov-18 01:23N 59°20' E 018°05'0 0.0
2014-Nov-18 00:23N 59°20' E 018°05'0 0.0
2014-Nov-17 23:17N 59°20' E 018°05'0 0.0
2014-Nov-17 22:29N 59°20' E 018°05'0 0.0
2014-Nov-17 21:29N 59°20' E 018°05'0 0.0
2014-Nov-17 20:26N 59°20' E 018°05'0 0.0
2014-Nov-17 19:32N 59°20' E 018°05'0 0.0
2014-Nov-17 18:29N 59°20' E 018°05'0 0.0
2014-Nov-17 17:17N 59°20' E 018°05'0 0.0
2014-Nov-17 16:29N 59°20' E 018°05'0 0.0
2014-Nov-17 15:29N 59°20' E 018°05'0 0.0
2014-Nov-17 14:29N 59°20' E 018°05'0 0.0
2014-Nov-17 13:26N 59°20' E 018°05'0 0.0
2014-Nov-17 12:26N 59°20' E 018°05'0 0.0
2014-Nov-17 11:32N 59°20' E 018°05'0 0.0
2014-Nov-17 10:32N 59°20' E 018°05'0 0.0
2014-Nov-17 09:32N 59°20' E 018°05'0 0.0
2014-Nov-17 08:17N 59°20' E 018°05'0 0.0
2014-Nov-17 07:29N 59°20' E 018°05'2 2.6
2014-Nov-17 06:33N 59°19' E 018°09'8 0.9
2014-Nov-16 21:16N 59°24' E 018°22'5 6.2
2014-Nov-16 20:30N 59°21' E 018°14'5 5.3
2014-Nov-16 19:31N 59°20' E 018°05'3 3.6
2014-Nov-16 18:33N 59°20' E 018°11'2 0.2
2014-Nov-16 09:30N 59°21' E 018°15'5 5.1
2014-Nov-16 08:27N 59°20' E 018°05'0 0.0
2014-Nov-16 07:30N 59°20' E 018°05'0 0.0
2014-Nov-16 06:30N 59°20' E 018°05'0 0.0
2014-Nov-16 05:18N 59°20' E 018°05'0 0.0
2014-Nov-16 04:27N 59°20' E 018°05'0 0.0
2014-Nov-16 03:30N 59°20' E 018°05'0 0.0
2014-Nov-16 02:33N 59°20' E 018°05'0 0.0
2014-Nov-16 01:27N 59°20' E 018°05'0 0.0
2014-Nov-16 00:27N 59°20' E 018°05'0 0.0
2014-Nov-15 23:30N 59°20' E 018°05'0 0.0
2014-Nov-15 22:33N 59°20' E 018°05'0 0.0
2014-Nov-15 21:30N 59°20' E 018°05'0 0.0
2014-Nov-15 20:33N 59°20' E 018°05'6 5.6
2014-Nov-15 19:33N 59°22' E 018°15'1 0.1
2014-Nov-15 13:30N 59°21' E 018°15'5 5.4
2014-Nov-15 12:31N 59°20' E 018°04'0 0.0
2014-Nov-15 11:31N 59°20' E 018°04'0 0.0
2014-Nov-15 10:31N 59°20' E 018°04'8 8.0
2014-Nov-15 09:33N 59°23' E 018°19'2 2.0
2014-Nov-15 08:31N 59°24' E 018°22'  
Track history (hours):
 
Tides and Currents Weather Stations Pressure Air Temp Water Temp Dewpoint Dewpoint Depression Visibility Wind Speed Wind Dir Waves Ship Positions

Varmdo

Last reported at 2014-Nov-24 18:23 UTC. Time now 2014-Nov-24 21:26 UTC.
Position N 59°24' E 018°21'.

Length 38 m; draft 2.5 m.

Type: Passenger vessel. MMSI: 265520390.

Date/timePositionNaut miles runAvg speedWind from/ knotsBaromVisibWave heightAir tempDewpointWater temp
2014-Nov-24 18:23N 59°24' E 018°21'1 1.2
2014-Nov-24 17:32N 59°23' E 018°20'9 9.1
2014-Nov-24 16:33N 59°19' E 018°05'0 0.3
2014-Nov-24 15:28N 59°20' E 018°04'0 0.0
2014-Nov-24 14:31N 59°20' E 018°04'0 0.0
2014-Nov-24 13:28N 59°20' E 018°04'0 0.0
2014-Nov-24 12:31N 59°20' E 018°04'0 0.0
2014-Nov-24 11:31N 59°20' E 018°04'0 0.0
2014-Nov-24 10:31N 59°20' E 018°04'0 0.0
2014-Nov-24 09:31N 59°20' E 018°04'0 0.0
2014-Nov-24 08:31N 59°20' E 018°04'0 0.0
2014-Nov-24 07:31N 59°20' E 018°04'3 3.5
2014-Nov-24 06:34N 59°20' E 018°11'7 7.0
2014-Nov-24 05:32N 59°24' E 018°22'1 0.1
2014-Nov-23 21:34N 59°24' E 018°21'5 4.3
2014-Nov-23 20:29N 59°21' E 018°15'5 5.5
2014-Nov-23 19:31N 59°20' E 018°05'3 3.1
2014-Nov-23 18:34N 59°19' E 018°10'3 0.3
2014-Nov-23 09:32N 59°21' E 018°14'5 5.3
2014-Nov-23 08:33N 59°20' E 018°05'0 0.0
2014-Nov-23 07:33N 59°20' E 018°05'0 0.0
2014-Nov-23 06:33N 59°20' E 018°05'0 0.0
2014-Nov-23 05:33N 59°20' E 018°05'0 0.0
2014-Nov-23 04:33N 59°20' E 018°05'0 0.0
2014-Nov-23 03:33N 59°20' E 018°05'0 0.0
2014-Nov-23 02:33N 59°20' E 018°05'0 0.0
2014-Nov-23 01:33N 59°20' E 018°05'0 0.0
2014-Nov-23 00:33N 59°20' E 018°05'0 0.0
2014-Nov-22 23:33N 59°20' E 018°05'0 0.0
2014-Nov-22 22:30N 59°20' E 018°05'0 0.0
2014-Nov-22 21:30N 59°20' E 018°05'0 0.0
2014-Nov-22 20:33N 59°20' E 018°05'6 5.9
2014-Nov-22 19:33N 59°22' E 018°15'1 0.1
2014-Nov-22 13:27N 59°21' E 018°15'5 5.7
2014-Nov-22 12:32N 59°20' E 018°05'0 0.0
2014-Nov-22 11:26N 59°20' E 018°05'0 0.0
2014-Nov-22 10:32N 59°20' E 018°05'7 7.7
2014-Nov-22 09:34N 59°23' E 018°18'2 0.1
2014-Nov-21 17:04N 59°24' E 018°21'4 7.8
2014-Nov-21 16:32N 59°21' E 018°15'5 5.3
2014-Nov-21 15:31N 59°20' E 018°05'0 0.0
2014-Nov-21 14:31N 59°20' E 018°05'6 5.8
2014-Nov-21 13:33N 59°21' E 018°15'4 0.8
2014-Nov-21 08:12N 59°24' E 018°21'811.8
2014-Nov-21 07:33N 59°19' E 018°09'0 0.1
2014-Nov-21 06:33N 59°19' E 018°09'7 0.5
2014-Nov-20 17:28N 59°23' E 018°20'9 9.6
2014-Nov-20 16:33N 59°19' E 018°05'0 0.4
2014-Nov-20 15:32N 59°20' E 018°05'0 0.0
2014-Nov-20 14:29N 59°20' E 018°05'0 0.0
2014-Nov-20 13:32N 59°20' E 018°05'0 0.0
2014-Nov-20 12:29N 59°20' E 018°05'0 0.0
2014-Nov-20 11:32N 59°20' E 018°05'0 0.0
2014-Nov-20 10:32N 59°20' E 018°05'0 0.0
2014-Nov-20 09:32N 59°20' E 018°05'0 0.0
2014-Nov-20 08:32N 59°20' E 018°05'0 0.0
2014-Nov-20 07:29N 59°20' E 018°05'3 2.7
2014-Nov-20 06:31N 59°19' E 018°09'7 0.5
2014-Nov-19 17:29N 59°23' E 018°20'9 9.6
2014-Nov-19 16:33N 59°19' E 018°05'0 0.3
2014-Nov-19 15:26N 59°20' E 018°05'0 0.0
2014-Nov-19 14:29N 59°20' E 018°05'0 0.0
2014-Nov-19 13:32N 59°20' E 018°05'0 0.0
2014-Nov-19 12:32N 59°20' E 018°05'0 0.0
2014-Nov-19 11:33N 59°20' E 018°05'0 0.1
2014-Nov-19 10:32N 59°20' E 018°05'0 0.0
2014-Nov-19 09:32N 59°20' E 018°05'0 0.0
2014-Nov-19 08:32N 59°20' E 018°05'0 0.0
2014-Nov-19 06:14N 59°20' E 018°05'0 0.0
2014-Nov-19 04:23N 59°20' E 018°05'0 0.0
2014-Nov-19 02:32N 59°20' E 018°05'0 0.0
2014-Nov-19 01:32N 59°20' E 018°05'0 0.0
2014-Nov-19 00:32N 59°20' E 018°05'0 0.0
2014-Nov-18 23:29N 59°20' E 018°05'0 0.0
2014-Nov-18 22:26N 59°20' E 018°05'0 0.0
2014-Nov-18 21:26N 59°20' E 018°05'0 0.0
2014-Nov-18 20:23N 59°20' E 018°05'0 0.0
2014-Nov-18 19:32N 59°20' E 018°05'0 0.0
2014-Nov-18 18:32N 59°20' E 018°05'0 0.0
2014-Nov-18 17:20N 59°20' E 018°05'0 0.0
2014-Nov-18 16:32N 59°20' E 018°05'0 0.0
2014-Nov-18 15:29N 59°20' E 018°05'0 0.0
2014-Nov-18 14:29N 59°20' E 018°05'0 0.0
2014-Nov-18 13:26N 59°20' E 018°05'0 0.0
2014-Nov-18 12:26N 59°20' E 018°05'0 0.0
2014-Nov-18 11:26N 59°20' E 018°05'0 0.0
2014-Nov-18 09:08N 59°20' E 018°05'0 0.0
2014-Nov-18 08:29N 59°20' E 018°05'0 0.0
2014-Nov-18 04:29N 59°20' E 018°05'0 0.0
2014-Nov-18 03:17N 59°20' E 018°05'0 0.0
2014-Nov-18 02:14N 59°20' E 018°05'0 0.0
2014-Nov-18 01:23N 59°20' E 018°05'0 0.0
2014-Nov-18 00:23N 59°20' E 018°05'0 0.0
2014-Nov-17 23:17N 59°20' E 018°05'0 0.0
2014-Nov-17 22:29N 59°20' E 018°05'0 0.0
2014-Nov-17 21:29N 59°20' E 018°05'0 0.0
2014-Nov-17 20:26N 59°20' E 018°05'0 0.0
2014-Nov-17 19:32N 59°20' E 018°05'0 0.0
2014-Nov-17 18:29N 59°20' E 018°05'0 0.0
2014-Nov-17 17:17N 59°20' E 018°05'0 0.0
2014-Nov-17 16:29N 59°20' E 018°05'0 0.0
2014-Nov-17 15:29N 59°20' E 018°05'0 0.0
2014-Nov-17 14:29N 59°20' E 018°05'0 0.0
2014-Nov-17 13:26N 59°20' E 018°05'0 0.0
2014-Nov-17 12:26N 59°20' E 018°05'0 0.0
2014-Nov-17 11:32N 59°20' E 018°05'0 0.0
2014-Nov-17 10:32N 59°20' E 018°05'0 0.0
2014-Nov-17 09:32N 59°20' E 018°05'0 0.0
2014-Nov-17 08:17N 59°20' E 018°05'0 0.0
2014-Nov-17 07:29N 59°20' E 018°05'2 2.6
2014-Nov-17 06:33N 59°19' E 018°09'8 0.9
2014-Nov-16 21:16N 59°24' E 018°22'5 6.2
2014-Nov-16 20:30N 59°21' E 018°14'5 5.3
2014-Nov-16 19:31N 59°20' E 018°05'3 3.6
2014-Nov-16 18:33N 59°20' E 018°11'2 0.2
2014-Nov-16 09:30N 59°21' E 018°15'5 5.1
2014-Nov-16 08:27N 59°20' E 018°05'0 0.0
2014-Nov-16 07:30N 59°20' E 018°05'0 0.0
2014-Nov-16 06:30N 59°20' E 018°05'0 0.0
2014-Nov-16 05:18N 59°20' E 018°05'0 0.0
2014-Nov-16 04:27N 59°20' E 018°05'0 0.0
2014-Nov-16 03:30N 59°20' E 018°05'0 0.0
2014-Nov-16 02:33N 59°20' E 018°05'0 0.0
2014-Nov-16 01:27N 59°20' E 018°05'0 0.0
2014-Nov-16 00:27N 59°20' E 018°05'0 0.0
2014-Nov-15 23:30N 59°20' E 018°05'0 0.0
2014-Nov-15 22:33N 59°20' E 018°05'0 0.0
2014-Nov-15 21:30N 59°20' E 018°05'0 0.0
2014-Nov-15 20:33N 59°20' E 018°05'6 5.6
2014-Nov-15 19:33N 59°22' E 018°15'1 0.1
2014-Nov-15 13:30N 59°21' E 018°15'5 5.4
2014-Nov-15 12:31N 59°20' E 018°04'0 0.0
2014-Nov-15 11:31N 59°20' E 018°04'0 0.0
2014-Nov-15 10:31N 59°20' E 018°04'8 8.0
2014-Nov-15 09:33N 59°23' E 018°19'2 2.0
2014-Nov-15 08:31N 59°24' E 018°22'  

Dump ship's entire track history